Skip Navigation LinksHome page > Weather > Current weather Skip Navigation Links

Current Weather

Chicago O'Hare Intl, Chicago

For information only: do not use for flight planning or navigation.
Latest weather
Observation time Tuesday, October 25, 2016 11:51 AM CDT
Local time Tuesday, October 25, 2016 12:16 PM CDT
Flight conditions Visual Meteorological Conditions
Wind direction South-Southeast (160°)
Wind speed 10 mph
Visibility 10 mi.
Sky condition
Ceiling 25,000 ft. overcast
Cloud layer scattered clouds 13,000 ft.
Cloud layer overcast 25,000 ft.
Temperature 51°F
Dewpoint 36°F
Altimeter 30.44 in.Hg
Derived measurements
Relative humidity 56%
Density altitude -341 ft.
Sea-level pressure 30.45 in.Hg
Automated weather observing station with precipitation discriminator.
METAR KORD 251651Z 16009KT 10SM SCT130 OVC250 11/02 A3044 RMK AO2 SLP312 T01060022


Location code

InnerDrive.Weather 4.0.5722.1 Release CLR 4.0.30319.34209
Copyright ©2015 Inner Drive Technology. All rights reserved. Portions Copyright ©1986-2015 David Braverman.

Find weather

Site navigation

Skip Navigation Links

Place info

Page info

PayPal - The safer, easier way to pay online!

Return home.

Copyright ©2016 Inner Drive Technology. Purveyors of fine, hand-crafted computer software. Page printed 2016-10-25T17:16:07 UTC.